sensor_id;sensor_type;location;lat;lon;timestamp;pressure;altitude;pressure_sealevel;temperature;humidity
76050;BME280;64967;50.234;19.224;2024-03-02T00:00:08;75304.53;;;-143.90;100.00
76050;BME280;64967;50.234;19.224;2024-03-02T00:02:44;75304.53;;;-143.90;100.00
76050;BME280;64967;50.234;19.224;2024-03-02T00:05:15;75308.66;;;-143.90;100.00
76050;BME280;64967;50.234;19.224;2024-03-02T00:07:44;75312.81;;;-143.90;100.00
76050;BME280;64967;50.234;19.224;2024-03-02T00:10:18;75331.41;;;-143.90;100.00
76050;BME280;64967;50.234;19.224;2024-03-02T00:12:47;75341.75;;;-143.90;100.00
76050;BME280;64967;50.234;19.224;2024-03-02T00:17:57;75354.16;;;-143.90;100.00
76050;BME280;64967;50.234;19.224;2024-03-02T00:20:25;75358.28;;;-143.90;100.00
76050;BME280;64967;50.234;19.224;2024-03-02T00:23:02;75381.03;;;-143.90;100.00
76050;BME280;64967;50.234;19.224;2024-03-02T00:25:40;75366.56;;;-143.90;100.00
76050;BME280;64967;50.234;19.224;2024-03-02T00:30:58;75395.50;;;-143.90;100.00
76050;BME280;64967;50.234;19.224;2024-03-02T00:33:27;75393.44;;;-143.90;100.00
76050;BME280;64967;50.234;19.224;2024-03-02T00:35:57;75403.78;;;-143.90;100.00
76050;BME280;64967;50.234;19.224;2024-03-02T00:38:24;75399.63;;;-143.90;100.00
76050;BME280;64967;50.234;19.224;2024-03-02T00:40:51;75389.31;;;-143.90;100.00
76050;BME280;64967;50.234;19.224;2024-03-02T00:45:50;75370.69;;;-143.90;100.00
76050;BME280;64967;50.234;19.224;2024-03-02T00:48:17;75366.56;;;-143.90;100.00
76050;BME280;64967;50.234;19.224;2024-03-02T00:50:44;75364.50;;;-143.90;100.00
76050;BME280;64967;50.234;19.224;2024-03-02T00:53:12;75366.56;;;-143.90;100.00
76050;BME280;64967;50.234;19.224;2024-03-02T00:55:39;75370.69;;;-143.90;100.00
76050;BME280;64967;50.234;19.224;2024-03-02T00:58:10;75370.69;;;-143.90;100.00
76050;BME280;64967;50.234;19.224;2024-03-02T01:00:37;75381.03;;;-143.90;100.00
76050;BME280;64967;50.234;19.224;2024-03-02T01:03:04;75383.09;;;-143.90;100.00
76050;BME280;64967;50.234;19.224;2024-03-02T01:05:31;75370.69;;;-143.90;100.00
76050;BME280;64967;50.234;19.224;2024-03-02T01:07:57;75366.56;;;-143.90;100.00
76050;BME280;64967;50.234;19.224;2024-03-02T01:10:24;75358.28;;;-143.90;100.00
76050;BME280;64967;50.234;19.224;2024-03-02T01:12:52;75358.28;;;-143.90;100.00
76050;BME280;64967;50.234;19.224;2024-03-02T01:15:19;75350.03;;;-143.90;100.00
76050;BME280;64967;50.234;19.224;2024-03-02T01:17:45;75356.22;;;-143.90;100.00
76050;BME280;64967;50.234;19.224;2024-03-02T01:20:12;75360.34;;;-143.90;100.00
76050;BME280;64967;50.234;19.224;2024-03-02T01:22:39;75345.88;;;-143.90;100.00
76050;BME280;64967;50.234;19.224;2024-03-02T01:25:06;75360.34;;;-143.90;100.00
76050;BME280;64967;50.234;19.224;2024-03-02T01:27:35;75360.34;;;-143.90;100.00
76050;BME280;64967;50.234;19.224;2024-03-02T01:30:01;75366.56;;;-143.90;100.00
76050;BME280;64967;50.234;19.224;2024-03-02T01:32:28;75345.88;;;-143.90;100.00
76050;BME280;64967;50.234;19.224;2024-03-02T01:34:56;75360.34;;;-143.90;100.00
76050;BME280;64967;50.234;19.224;2024-03-02T01:37:22;75358.28;;;-143.90;100.00
76050;BME280;64967;50.234;19.224;2024-03-02T01:39:49;75366.56;;;-143.90;100.00
76050;BME280;64967;50.234;19.224;2024-03-02T01:42:16;75358.28;;;-143.90;100.00
76050;BME280;64967;50.234;19.224;2024-03-02T01:44:42;75366.56;;;-143.90;100.00
76050;BME280;64967;50.234;19.224;2024-03-02T01:47:09;75372.75;;;-143.90;100.00
76050;BME280;64967;50.234;19.224;2024-03-02T01:49:36;75366.56;;;-143.90;100.00
76050;BME280;64967;50.234;19.224;2024-03-02T01:52:05;75378.97;;;-143.90;100.00
76050;BME280;64967;50.234;19.224;2024-03-02T01:54:31;75387.22;;;-143.90;100.00
76050;BME280;64967;50.234;19.224;2024-03-02T01:56:59;75383.09;;;-143.90;100.00
76050;BME280;64967;50.234;19.224;2024-03-02T01:59:26;75372.75;;;-143.90;100.00
76050;BME280;64967;50.234;19.224;2024-03-02T02:01:53;75370.69;;;-143.90;100.00
76050;BME280;64967;50.234;19.224;2024-03-02T02:04:20;75372.75;;;-143.90;100.00
76050;BME280;64967;50.234;19.224;2024-03-02T02:06:54;75368.63;;;-143.90;100.00
76050;BME280;64967;50.234;19.224;2024-03-02T02:09:20;75374.84;;;-143.90;100.00
76050;BME280;64967;50.234;19.224;2024-03-02T02:11:47;75370.69;;;-143.90;100.00
76050;BME280;64967;50.234;19.224;2024-03-02T02:14:14;75366.56;;;-143.90;100.00
76050;BME280;64967;50.234;19.224;2024-03-02T02:16:41;75387.22;;;-143.90;100.00
76050;BME280;64967;50.234;19.224;2024-03-02T02:19:08;75399.63;;;-143.90;100.00
76050;BME280;64967;50.234;19.224;2024-03-02T02:21:35;75428.59;;;-143.90;100.00
76050;BME280;64967;50.234;19.224;2024-03-02T02:24:02;75428.59;;;-143.90;100.00
76050;BME280;64967;50.234;19.224;2024-03-02T02:26:30;75424.44;;;-143.90;100.00
76050;BME280;64967;50.234;19.224;2024-03-02T02:28:57;75428.59;;;-143.90;100.00
76050;BME280;64967;50.234;19.224;2024-03-02T02:31:23;75416.19;;;-143.90;100.00
76050;BME280;64967;50.234;19.224;2024-03-02T02:33:50;75416.19;;;-143.90;100.00
76050;BME280;64967;50.234;19.224;2024-03-02T02:36:17;75407.91;;;-143.90;100.00
76050;BME280;64967;50.234;19.224;2024-03-02T02:38:45;75409.97;;;-143.90;100.00
76050;BME280;64967;50.234;19.224;2024-03-02T02:41:13;75405.84;;;-143.90;100.00
76050;BME280;64967;50.234;19.224;2024-03-02T02:43:39;75407.91;;;-143.90;100.00
76050;BME280;64967;50.234;19.224;2024-03-02T02:46:06;75405.84;;;-143.90;100.00
76050;BME280;64967;50.234;19.224;2024-03-02T02:48:33;75407.91;;;-143.90;100.00
76050;BME280;64967;50.234;19.224;2024-03-02T02:51:00;75405.84;;;-143.90;100.00
76050;BME280;64967;50.234;19.224;2024-03-02T02:53:26;75416.19;;;-143.90;100.00
76050;BME280;64967;50.234;19.224;2024-03-02T02:55:53;75414.13;;;-143.90;100.00
76050;BME280;64967;50.234;19.224;2024-03-02T02:58:20;75426.50;;;-143.90;100.00
76050;BME280;64967;50.234;19.224;2024-03-02T03:00:46;75412.03;;;-143.90;100.00
76050;BME280;64967;50.234;19.224;2024-03-02T03:03:13;75405.84;;;-143.90;100.00
76050;BME280;64967;50.234;19.224;2024-03-02T03:05:40;75399.63;;;-143.90;100.00
76050;BME280;64967;50.234;19.224;2024-03-02T03:08:07;75391.38;;;-143.90;100.00
76050;BME280;64967;50.234;19.224;2024-03-02T03:10:34;75393.44;;;-143.90;100.00
76050;BME280;64967;50.234;19.224;2024-03-02T03:13:00;75401.72;;;-143.90;100.00
76050;BME280;64967;50.234;19.224;2024-03-02T03:15:27;75407.91;;;-143.90;100.00
76050;BME280;64967;50.234;19.224;2024-03-02T03:17:54;75403.78;;;-143.90;100.00
76050;BME280;64967;50.234;19.224;2024-03-02T03:20:21;75403.78;;;-143.90;100.00
76050;BME280;64967;50.234;19.224;2024-03-02T03:22:49;75407.91;;;-143.90;100.00
76050;BME280;64967;50.234;19.224;2024-03-02T03:25:15;75401.72;;;-143.90;100.00
76050;BME280;64967;50.234;19.224;2024-03-02T03:27:42;75391.38;;;-143.90;100.00
76050;BME280;64967;50.234;19.224;2024-03-02T03:30:09;75391.38;;;-143.90;100.00
76050;BME280;64967;50.234;19.224;2024-03-02T03:32:36;75389.31;;;-143.90;100.00
76050;BME280;64967;50.234;19.224;2024-03-02T03:35:03;75395.50;;;-143.90;100.00
76050;BME280;64967;50.234;19.224;2024-03-02T03:37:30;75397.56;;;-143.90;100.00
76050;BME280;64967;50.234;19.224;2024-03-02T03:40:02;75395.50;;;-143.90;100.00
76050;BME280;64967;50.234;19.224;2024-03-02T03:42:29;75401.72;;;-143.90;100.00
76050;BME280;64967;50.234;19.224;2024-03-02T03:44:56;75414.13;;;-143.90;100.00
76050;BME280;64967;50.234;19.224;2024-03-02T03:47:23;75414.13;;;-143.90;100.00
76050;BME280;64967;50.234;19.224;2024-03-02T03:49:49;75399.63;;;-143.90;100.00
76050;BME280;64967;50.234;19.224;2024-03-02T03:52:16;75403.78;;;-143.90;100.00
76050;BME280;64967;50.234;19.224;2024-03-02T03:54:42;75391.38;;;-143.90;100.00
76050;BME280;64967;50.234;19.224;2024-03-02T03:57:11;75381.03;;;-143.90;100.00
76050;BME280;64967;50.234;19.224;2024-03-02T03:59:37;75362.44;;;-143.90;100.00
76050;BME280;64967;50.234;19.224;2024-03-02T04:02:04;75358.28;;;-143.90;100.00
76050;BME280;64967;50.234;19.224;2024-03-02T04:04:31;75366.56;;;-143.90;100.00
76050;BME280;64967;50.234;19.224;2024-03-02T04:06:58;75362.44;;;-143.90;100.00
76050;BME280;64967;50.234;19.224;2024-03-02T04:09:24;75362.44;;;-143.90;100.00
76050;BME280;64967;50.234;19.224;2024-03-02T04:11:52;75362.44;;;-143.90;100.00
76050;BME280;64967;50.234;19.224;2024-03-02T04:14:18;75366.56;;;-143.90;100.00
76050;BME280;64967;50.234;19.224;2024-03-02T04:16:45;75387.22;;;-143.90;100.00
76050;BME280;64967;50.234;19.224;2024-03-02T04:19:12;75383.09;;;-143.90;100.00
76050;BME280;64967;50.234;19.224;2024-03-02T04:21:38;75385.16;;;-143.90;100.00
76050;BME280;64967;50.234;19.224;2024-03-02T04:24:05;75378.97;;;-143.90;100.00
76050;BME280;64967;50.234;19.224;2024-03-02T04:26:33;75381.03;;;-143.90;100.00
76050;BME280;64967;50.234;19.224;2024-03-02T04:29:00;75391.38;;;-143.90;100.00
76050;BME280;64967;50.234;19.224;2024-03-02T04:31:26;75407.91;;;-143.90;100.00
76050;BME280;64967;50.234;19.224;2024-03-02T04:33:53;75397.56;;;-143.90;100.00
76050;BME280;64967;50.234;19.224;2024-03-02T04:36:20;75399.63;;;-143.90;100.00
76050;BME280;64967;50.234;19.224;2024-03-02T04:38:50;75391.38;;;-143.90;100.00
76050;BME280;64967;50.234;19.224;2024-03-02T04:41:17;75378.97;;;-143.90;100.00
76050;BME280;64967;50.234;19.224;2024-03-02T04:43:43;75366.56;;;-143.90;100.00
76050;BME280;64967;50.234;19.224;2024-03-02T04:46:10;75366.56;;;-143.90;100.00
76050;BME280;64967;50.234;19.224;2024-03-02T04:48:37;75354.16;;;-143.90;100.00
76050;BME280;64967;50.234;19.224;2024-03-02T04:51:04;75352.09;;;-143.90;100.00
76050;BME280;64967;50.234;19.224;2024-03-02T04:53:31;75366.56;;;-143.90;100.00
76050;BME280;64967;50.234;19.224;2024-03-02T04:55:57;75368.63;;;-143.90;100.00
76050;BME280;64967;50.234;19.224;2024-03-02T04:58:50;75368.63;;;-143.90;100.00
76050;BME280;64967;50.234;19.224;2024-03-02T05:01:16;75362.44;;;-143.90;100.00
76050;BME280;64967;50.234;19.224;2024-03-02T05:03:44;75350.03;;;-143.90;100.00
76050;BME280;64967;50.234;19.224;2024-03-02T05:06:11;75362.44;;;-143.90;100.00
76050;BME280;64967;50.234;19.224;2024-03-02T05:08:38;75350.03;;;-143.90;100.00
76050;BME280;64967;50.234;19.224;2024-03-02T05:11:05;75345.88;;;-143.90;100.00
76050;BME280;64967;50.234;19.224;2024-03-02T05:13:50;75341.75;;;-143.90;100.00
76050;BME280;64967;50.234;19.224;2024-03-02T05:16:16;75335.53;;;-143.90;100.00
76050;BME280;64967;50.234;19.224;2024-03-02T05:18:43;75327.28;;;-143.90;100.00
76050;BME280;64967;50.234;19.224;2024-03-02T05:21:10;75341.75;;;-143.90;100.00
76050;BME280;64967;50.234;19.224;2024-03-02T05:23:38;75341.75;;;-143.90;100.00
76050;BME280;64967;50.234;19.224;2024-03-02T05:26:05;75350.03;;;-143.90;100.00
76050;BME280;64967;50.234;19.224;2024-03-02T05:28:32;75347.94;;;-143.90;100.00
76050;BME280;64967;50.234;19.224;2024-03-02T05:30:59;75354.16;;;-143.90;100.00
76050;BME280;64967;50.234;19.224;2024-03-02T05:33:26;75345.88;;;-143.90;100.00
76050;BME280;64967;50.234;19.224;2024-03-02T05:35:52;75345.88;;;-143.90;100.00
76050;BME280;64967;50.234;19.224;2024-03-02T05:38:20;75341.75;;;-143.90;100.00
76050;BME280;64967;50.234;19.224;2024-03-02T05:40:50;75335.53;;;-143.90;100.00
76050;BME280;64967;50.234;19.224;2024-03-02T05:43:17;75339.69;;;-143.90;100.00
76050;BME280;64967;50.234;19.224;2024-03-02T05:45:44;75341.75;;;-143.90;100.00
76050;BME280;64967;50.234;19.224;2024-03-02T05:48:11;75339.69;;;-143.90;100.00
76050;BME280;64967;50.234;19.224;2024-03-02T05:50:38;75337.63;;;-143.90;100.00
76050;BME280;64967;50.234;19.224;2024-03-02T05:53:04;75333.47;;;-143.90;100.00
76050;BME280;64967;50.234;19.224;2024-03-02T05:55:31;75331.41;;;-143.90;100.00
76050;BME280;64967;50.234;19.224;2024-03-02T05:57:58;75339.69;;;-143.90;100.00
76050;BME280;64967;50.234;19.224;2024-03-02T06:00:25;75321.06;;;-143.90;100.00
76050;BME280;64967;50.234;19.224;2024-03-02T06:02:51;75327.28;;;-143.90;100.00
76050;BME280;64967;50.234;19.224;2024-03-02T06:05:19;75343.81;;;-143.90;100.00
76050;BME280;64967;50.234;19.224;2024-03-02T06:07:46;75333.47;;;-143.90;100.00
76050;BME280;64967;50.234;19.224;2024-03-02T06:10:12;75323.16;;;-143.90;100.00
76050;BME280;64967;50.234;19.224;2024-03-02T06:12:40;75312.81;;;-143.90;100.00
76050;BME280;64967;50.234;19.224;2024-03-02T06:15:07;75308.66;;;-143.90;100.00
76050;BME280;64967;50.234;19.224;2024-03-02T06:17:37;75302.47;;;-143.90;100.00
76050;BME280;64967;50.234;19.224;2024-03-02T06:20:04;75306.59;;;-143.90;100.00
76050;BME280;64967;50.234;19.224;2024-03-02T06:22:31;75298.34;;;-143.90;100.00
76050;BME280;64967;50.234;19.224;2024-03-02T06:24:57;75292.13;;;-143.90;100.00
76050;BME280;64967;50.234;19.224;2024-03-02T06:27:24;75288.00;;;-143.90;100.00
76050;BME280;64967;50.234;19.224;2024-03-02T06:29:51;75271.47;;;-143.90;100.00
76050;BME280;64967;50.234;19.224;2024-03-02T06:32:18;75273.53;;;-143.90;100.00
76050;BME280;64967;50.234;19.224;2024-03-02T06:34:44;75254.91;;;-143.90;100.00
76050;BME280;64967;50.234;19.224;2024-03-02T06:37:11;75250.78;;;-143.90;100.00
76050;BME280;64967;50.234;19.224;2024-03-02T06:39:37;75238.38;;;-143.90;100.00
76050;BME280;64967;50.234;19.224;2024-03-02T06:42:05;75228.03;;;-143.90;100.00
76050;BME280;64967;50.234;19.224;2024-03-02T06:44:31;75217.69;;;-143.90;100.00
76050;BME280;64967;50.234;19.224;2024-03-02T06:46:58;75209.44;;;-143.90;100.00
76050;BME280;64967;50.234;19.224;2024-03-02T06:49:25;75207.38;;;-143.90;100.00
76050;BME280;64967;50.234;19.224;2024-03-02T06:51:51;75203.22;;;-143.90;100.00
76050;BME280;64967;50.234;19.224;2024-03-02T06:54:18;75188.75;;;-143.90;100.00
76050;BME280;64967;50.234;19.224;2024-03-02T06:56:45;75168.09;;;-143.90;100.00
76050;BME280;64967;50.234;19.224;2024-03-02T06:59:11;75155.69;;;-143.90;100.00
76050;BME280;64967;50.234;19.224;2024-03-02T07:01:38;75139.16;;;-143.90;100.00
76050;BME280;64967;50.234;19.224;2024-03-02T07:04:05;75132.94;;;-143.90;100.00
76050;BME280;64967;50.234;19.224;2024-03-02T07:06:33;75151.53;;;-143.90;100.00
76050;BME280;64967;50.234;19.224;2024-03-02T07:08:59;75122.59;;;-143.90;100.00
76050;BME280;64967;50.234;19.224;2024-03-02T07:11:26;75118.47;;;-143.90;100.00
76050;BME280;64967;50.234;19.224;2024-03-02T07:13:53;75110.19;;;-143.90;100.00
76050;BME280;64967;50.234;19.224;2024-03-02T07:16:20;75095.72;;;-143.90;100.00
76050;BME280;64967;50.234;19.224;2024-03-02T07:19:06;75085.38;;;-143.90;100.00
76050;BME280;64967;50.234;19.224;2024-03-02T07:21:33;75072.97;;;-143.90;100.00
76050;BME280;64967;50.234;19.224;2024-03-02T07:24:00;75089.53;;;-143.90;100.00
76050;BME280;64967;50.234;19.224;2024-03-02T07:26:30;75087.47;;;-143.90;100.00
76050;BME280;64967;50.234;19.224;2024-03-02T07:29:00;75077.13;;;-143.90;100.00
76050;BME280;64967;50.234;19.224;2024-03-02T07:31:27;75068.84;;;-143.90;100.00
76050;BME280;64967;50.234;19.224;2024-03-02T07:33:54;75062.66;;;-143.90;100.00
76050;BME280;64967;50.234;19.224;2024-03-02T07:36:21;75044.03;;;-143.90;100.00
76050;BME280;64967;50.234;19.224;2024-03-02T07:38:47;75031.63;;;-143.90;100.00
76050;BME280;64967;50.234;19.224;2024-03-02T07:41:16;75023.38;;;-143.90;100.00
76050;BME280;64967;50.234;19.224;2024-03-02T07:43:44;75033.72;;;-143.90;100.00
76050;BME280;64967;50.234;19.224;2024-03-02T07:46:11;75015.09;;;-143.90;100.00
76050;BME280;64967;50.234;19.224;2024-03-02T07:48:37;75004.75;;;-143.90;100.00
76050;BME280;64967;50.234;19.224;2024-03-02T07:51:05;74982.03;;;-143.90;100.00
76050;BME280;64967;50.234;19.224;2024-03-02T07:53:32;74994.44;;;-143.90;100.00
76050;BME280;64967;50.234;19.224;2024-03-02T07:55:58;74973.75;;;-143.90;100.00
76050;BME280;64967;50.234;19.224;2024-03-02T07:58:29;74959.28;;;-143.90;100.00
76050;BME280;64967;50.234;19.224;2024-03-02T08:00:57;74932.41;;;-143.90;100.00
76050;BME280;64967;50.234;19.224;2024-03-02T08:03:24;74911.72;;;-143.90;100.00
76050;BME280;64967;50.234;19.224;2024-03-02T08:05:51;74897.25;;;-143.90;100.00
76050;BME280;64967;50.234;19.224;2024-03-02T08:08:18;74878.66;;;-143.90;100.00
76050;BME280;64967;50.234;19.224;2024-03-02T08:10:45;74872.47;;;-143.90;100.00
76050;BME280;64967;50.234;19.224;2024-03-02T08:13:11;74868.31;;;-143.90;100.00
76050;BME280;64967;50.234;19.224;2024-03-02T08:15:38;74903.47;;;-143.90;100.00
76050;BME280;64967;50.234;19.224;2024-03-02T08:18:05;74901.41;;;-143.90;100.00
76050;BME280;64967;50.234;19.224;2024-03-02T08:20:32;74911.72;;;-143.90;100.00
76050;BME280;64967;50.234;19.224;2024-03-02T08:22:58;74928.28;;;-143.90;100.00
76050;BME280;64967;50.234;19.224;2024-03-02T08:25:25;74930.34;;;-143.90;100.00
76050;BME280;64967;50.234;19.224;2024-03-02T08:27:52;74924.13;;;-143.90;100.00
76050;BME280;64967;50.234;19.224;2024-03-02T08:30:19;74942.75;;;-143.90;100.00
76050;BME280;64967;50.234;19.224;2024-03-02T08:32:45;74934.47;;;-143.90;100.00
76050;BME280;64967;50.234;19.224;2024-03-02T08:35:14;74934.47;;;-143.90;100.00
76050;BME280;64967;50.234;19.224;2024-03-02T08:37:41;74948.94;;;-143.90;100.00
76050;BME280;64967;50.234;19.224;2024-03-02T08:40:09;74951.00;;;-143.90;100.00
76050;BME280;64967;50.234;19.224;2024-03-02T08:42:36;74932.41;;;-143.90;100.00
76050;BME280;64967;50.234;19.224;2024-03-02T08:45:03;74920.00;;;-143.90;100.00
76050;BME280;64967;50.234;19.224;2024-03-02T08:47:30;74907.59;;;-143.90;100.00
76050;BME280;64967;50.234;19.224;2024-03-02T08:49:57;74909.66;;;-143.90;100.00
76050;BME280;64967;50.234;19.224;2024-03-02T08:52:27;74905.53;;;-143.90;100.00
76050;BME280;64967;50.234;19.224;2024-03-02T08:54:53;74901.41;;;-143.90;100.00
76050;BME280;64967;50.234;19.224;2024-03-02T08:57:20;74899.34;;;-143.90;100.00
76050;BME280;64967;50.234;19.224;2024-03-02T08:59:47;74889.00;;;-143.90;100.00
76050;BME280;64967;50.234;19.224;2024-03-02T09:02:14;74882.78;;;-143.90;100.00
76050;BME280;64967;50.234;19.224;2024-03-02T09:04:41;74878.66;;;-143.90;100.00
76050;BME280;64967;50.234;19.224;2024-03-02T09:07:07;74870.38;;;-143.90;100.00
76050;BME280;64967;50.234;19.224;2024-03-02T09:09:34;74862.13;;;-143.90;100.00
76050;BME280;64967;50.234;19.224;2024-03-02T09:12:01;74853.84;;;-143.90;100.00
76050;BME280;64967;50.234;19.224;2024-03-02T09:14:28;74853.84;;;-143.90;100.00
76050;BME280;64967;50.234;19.224;2024-03-02T09:16:55;74853.84;;;-143.90;100.00
76050;BME280;64967;50.234;19.224;2024-03-02T09:19:21;74843.53;;;-143.90;100.00
76050;BME280;64967;50.234;19.224;2024-03-02T09:21:48;74839.38;;;-143.90;100.00
76050;BME280;64967;50.234;19.224;2024-03-02T09:24:15;74843.53;;;-143.90;100.00
76050;BME280;64967;50.234;19.224;2024-03-02T09:26:44;74851.78;;;-143.90;100.00
76050;BME280;64967;50.234;19.224;2024-03-02T09:29:11;74841.44;;;-143.90;100.00
76050;BME280;64967;50.234;19.224;2024-03-02T09:31:41;74841.44;;;-143.90;100.00
76050;BME280;64967;50.234;19.224;2024-03-02T09:34:08;74845.59;;;-143.90;100.00
76050;BME280;64967;50.234;19.224;2024-03-02T09:36:35;74845.59;;;-143.90;100.00
76050;BME280;64967;50.234;19.224;2024-03-02T09:39:02;74870.38;;;-143.90;100.00
76050;BME280;64967;50.234;19.224;2024-03-02T09:41:30;74860.06;;;-143.90;100.00
76050;BME280;64967;50.234;19.224;2024-03-02T09:43:59;74841.44;;;-143.90;100.00
76050;BME280;64967;50.234;19.224;2024-03-02T09:46:26;74824.91;;;-143.90;100.00
76050;BME280;64967;50.234;19.224;2024-03-02T09:48:53;74843.53;;;-143.90;100.00
76050;BME280;64967;50.234;19.224;2024-03-02T09:51:19;74882.78;;;-143.90;100.00
76050;BME280;64967;50.234;19.224;2024-03-02T09:53:47;74884.88;;;-143.90;100.00
76050;BME280;64967;50.234;19.224;2024-03-02T09:56:14;74858.00;;;-143.90;100.00
76050;BME280;64967;50.234;19.224;2024-03-02T09:58:44;74843.53;;;-143.90;100.00
76050;BME280;64967;50.234;19.224;2024-03-02T10:01:11;74835.25;;;-143.90;100.00
76050;BME280;64967;50.234;19.224;2024-03-02T10:03:39;74826.97;;;-143.90;100.00
76050;BME280;64967;50.234;19.224;2024-03-02T10:06:41;74806.31;;;-143.90;100.00
76050;BME280;64967;50.234;19.224;2024-03-02T10:09:07;74793.91;;;-143.90;100.00
76050;BME280;64967;50.234;19.224;2024-03-02T10:11:35;74787.69;;;-143.90;100.00
76050;BME280;64967;50.234;19.224;2024-03-02T10:14:08;74781.50;;;-143.90;100.00
76050;BME280;64967;50.234;19.224;2024-03-02T10:16:39;74771.16;;;-143.90;100.00
76050;BME280;64967;50.234;19.224;2024-03-02T10:19:20;74760.81;;;-143.90;100.00
76050;BME280;64967;50.234;19.224;2024-03-02T10:21:48;74767.03;;;-143.90;100.00
76050;BME280;64967;50.234;19.224;2024-03-02T10:24:17;74769.09;;;-143.90;100.00
76050;BME280;64967;50.234;19.224;2024-03-02T10:26:44;74764.97;;;-143.90;100.00
76050;BME280;64967;50.234;19.224;2024-03-02T10:29:11;74758.75;;;-143.90;100.00
76050;BME280;64967;50.234;19.224;2024-03-02T10:31:39;74767.03;;;-143.90;100.00
76050;BME280;64967;50.234;19.224;2024-03-02T10:34:07;74760.81;;;-143.90;100.00
76050;BME280;64967;50.234;19.224;2024-03-02T10:36:35;74754.63;;;-143.90;100.00
76050;BME280;64967;50.234;19.224;2024-03-02T10:39:06;74748.44;;;-143.90;100.00
76050;BME280;64967;50.234;19.224;2024-03-02T10:41:35;74754.63;;;-143.90;100.00
76050;BME280;64967;50.234;19.224;2024-03-02T10:44:03;74740.16;;;-143.90;100.00
76050;BME280;64967;50.234;19.224;2024-03-02T10:46:31;74733.97;;;-143.90;100.00
76050;BME280;64967;50.234;19.224;2024-03-02T10:49:03;74721.56;;;-143.90;100.00
76050;BME280;64967;50.234;19.224;2024-03-02T10:51:34;74713.28;;;-143.90;100.00
76050;BME280;64967;50.234;19.224;2024-03-02T10:54:03;74713.28;;;-143.90;100.00
76050;BME280;64967;50.234;19.224;2024-03-02T10:56:42;74709.16;;;-143.90;100.00
76050;BME280;64967;50.234;19.224;2024-03-02T10:59:21;74709.16;;;-143.90;100.00
76050;BME280;64967;50.234;19.224;2024-03-02T11:01:55;74705.00;;;-143.90;100.00
76050;BME280;64967;50.234;19.224;2024-03-02T11:04:26;74705.00;;;-143.90;100.00
76050;BME280;64967;50.234;19.224;2024-03-02T11:07:10;74702.94;;;-143.90;100.00
76050;BME280;64967;50.234;19.224;2024-03-02T11:09:41;74694.69;;;-143.90;100.00
76050;BME280;64967;50.234;19.224;2024-03-02T11:12:35;74692.63;;;-143.90;100.00
76050;BME280;64967;50.234;19.224;2024-03-02T11:15:10;74692.63;;;-143.90;100.00
76050;BME280;64967;50.234;19.224;2024-03-02T11:17:38;74686.41;;;-143.90;100.00
76050;BME280;64967;50.234;19.224;2024-03-02T11:20:10;74684.34;;;-143.90;100.00
76050;BME280;64967;50.234;19.224;2024-03-02T11:22:37;74676.06;;;-143.90;100.00
76050;BME280;64967;50.234;19.224;2024-03-02T11:25:04;74667.81;;;-143.90;100.00
76050;BME280;64967;50.234;19.224;2024-03-02T11:33:02;74649.19;;;-143.90;100.00
76050;BME280;64967;50.234;19.224;2024-03-02T11:35:41;74643.00;;;-143.90;100.00
76050;BME280;64967;50.234;19.224;2024-03-02T11:38:14;74636.81;;;-143.90;100.00
76050;BME280;64967;50.234;19.224;2024-03-02T11:40:41;74630.59;;;-143.90;100.00
76050;BME280;64967;50.234;19.224;2024-03-02T11:43:09;74636.81;;;-143.90;100.00
76050;BME280;64967;50.234;19.224;2024-03-02T11:45:36;74626.47;;;-143.90;100.00
76050;BME280;64967;50.234;19.224;2024-03-02T11:48:11;74624.41;;;-143.90;100.00
76050;BME280;64967;50.234;19.224;2024-03-02T11:50:49;74622.34;;;-143.90;100.00
76050;BME280;64967;50.234;19.224;2024-03-02T11:53:16;74614.06;;;-143.90;100.00
76050;BME280;64967;50.234;19.224;2024-03-02T11:55:44;74605.78;;;-143.90;100.00
76050;BME280;64967;50.234;19.224;2024-03-02T11:58:14;74603.72;;;-143.90;100.00
76050;BME280;64967;50.234;19.224;2024-03-02T12:00:43;74609.94;;;-143.90;100.00
76050;BME280;64967;50.234;19.224;2024-03-02T12:03:13;74609.94;;;-143.90;100.00
76050;BME280;64967;50.234;19.224;2024-03-02T12:05:40;74614.06;;;-143.90;100.00
76050;BME280;64967;50.234;19.224;2024-03-02T12:08:07;74609.94;;;-143.90;100.00
76050;BME280;64967;50.234;19.224;2024-03-02T12:10:35;74601.66;;;-143.90;100.00
76050;BME280;64967;50.234;19.224;2024-03-02T12:13:04;74591.31;;;-143.90;100.00
76050;BME280;64967;50.234;19.224;2024-03-02T12:15:34;74581.00;;;-143.90;100.00
76050;BME280;64967;50.234;19.224;2024-03-02T12:18:04;74572.72;;;-143.90;100.00
76050;BME280;64967;50.234;19.224;2024-03-02T12:20:32;74558.25;;;-143.90;100.00
76050;BME280;64967;50.234;19.224;2024-03-02T12:23:03;74562.38;;;-143.90;100.00
76050;BME280;64967;50.234;19.224;2024-03-02T12:25:31;74543.78;;;-143.90;100.00
76050;BME280;64967;50.234;19.224;2024-03-02T12:28:00;74545.84;;;-143.90;100.00
76050;BME280;64967;50.234;19.224;2024-03-02T12:30:30;74539.66;;;-143.90;100.00
76050;BME280;64967;50.234;19.224;2024-03-02T12:32:57;74541.72;;;-143.90;100.00
76050;BME280;64967;50.234;19.224;2024-03-02T12:35:25;74531.38;;;-143.90;100.00
76050;BME280;64967;50.234;19.224;2024-03-02T12:37:53;74529.31;;;-143.90;100.00